sensor_id;sensor_type;location;lat;lon;timestamp;P1;durP1;ratioP1;P2;durP2;ratioP2
73693;SDS011;61997;53.974;11.670;2023-09-07T00:02:12;2.70;;;1.90;;
73693;SDS011;61997;53.974;11.670;2023-09-07T00:04:38;3.05;;;1.80;;
73693;SDS011;61997;53.974;11.670;2023-09-07T00:07:03;3.33;;;1.98;;
73693;SDS011;61997;53.974;11.670;2023-09-07T00:09:28;3.22;;;1.75;;
73693;SDS011;61997;53.974;11.670;2023-09-07T00:11:54;2.53;;;1.75;;
73693;SDS011;61997;53.974;11.670;2023-09-07T00:14:19;2.92;;;1.60;;
73693;SDS011;61997;53.974;11.670;2023-09-07T00:16:44;3.03;;;1.80;;
73693;SDS011;61997;53.974;11.670;2023-09-07T00:19:10;2.33;;;1.80;;
73693;SDS011;61997;53.974;11.670;2023-09-07T00:21:35;3.05;;;1.92;;
73693;SDS011;61997;53.974;11.670;2023-09-07T00:24:02;3.78;;;2.15;;
73693;SDS011;61997;53.974;11.670;2023-09-07T00:26:30;2.92;;;1.80;;
73693;SDS011;61997;53.974;11.670;2023-09-07T00:28:55;2.83;;;2.50;;
73693;SDS011;61997;53.974;11.670;2023-09-07T00:31:21;2.67;;;1.73;;
73693;SDS011;61997;53.974;11.670;2023-09-07T00:33:46;2.90;;;1.80;;
73693;SDS011;61997;53.974;11.670;2023-09-07T00:36:12;2.83;;;2.08;;
73693;SDS011;61997;53.974;11.670;2023-09-07T00:38:37;3.15;;;1.88;;
73693;SDS011;61997;53.974;11.670;2023-09-07T00:41:02;3.03;;;1.63;;
73693;SDS011;61997;53.974;11.670;2023-09-07T00:43:28;3.08;;;1.92;;
73693;SDS011;61997;53.974;11.670;2023-09-07T00:45:53;2.50;;;1.77;;
73693;SDS011;61997;53.974;11.670;2023-09-07T00:48:19;2.83;;;1.90;;
73693;SDS011;61997;53.974;11.670;2023-09-07T00:50:45;2.80;;;2.08;;
73693;SDS011;61997;53.974;11.670;2023-09-07T00:53:10;2.95;;;1.98;;
73693;SDS011;61997;53.974;11.670;2023-09-07T00:55:36;2.28;;;1.67;;
73693;SDS011;61997;53.974;11.670;2023-09-07T00:58:02;2.25;;;1.73;;
73693;SDS011;61997;53.974;11.670;2023-09-07T01:00:29;2.47;;;1.95;;
73693;SDS011;61997;53.974;11.670;2023-09-07T01:02:54;2.83;;;1.98;;
73693;SDS011;61997;53.974;11.670;2023-09-07T01:05:21;2.72;;;1.95;;
73693;SDS011;61997;53.974;11.670;2023-09-07T01:07:54;3.67;;;1.83;;
73693;SDS011;61997;53.974;11.670;2023-09-07T01:10:24;2.75;;;1.92;;
73693;SDS011;61997;53.974;11.670;2023-09-07T01:12:49;3.17;;;1.90;;
73693;SDS011;61997;53.974;11.670;2023-09-07T01:15:15;5.13;;;1.85;;
73693;SDS011;61997;53.974;11.670;2023-09-07T01:17:40;3.70;;;2.60;;
73693;SDS011;61997;53.974;11.670;2023-09-07T01:20:06;3.05;;;2.05;;
73693;SDS011;61997;53.974;11.670;2023-09-07T01:24:59;3.50;;;1.90;;
73693;SDS011;61997;53.974;11.670;2023-09-07T01:27:26;2.45;;;1.90;;
73693;SDS011;61997;53.974;11.670;2023-09-07T01:29:52;2.72;;;1.88;;
73693;SDS011;61997;53.974;11.670;2023-09-07T01:32:17;2.70;;;2.10;;
73693;SDS011;61997;53.974;11.670;2023-09-07T01:34:43;2.42;;;1.83;;
73693;SDS011;61997;53.974;11.670;2023-09-07T01:37:09;2.53;;;2.08;;
73693;SDS011;61997;53.974;11.670;2023-09-07T01:39:34;2.70;;;1.60;;
73693;SDS011;61997;53.974;11.670;2023-09-07T01:42:00;2.50;;;1.88;;
73693;SDS011;61997;53.974;11.670;2023-09-07T01:44:25;2.83;;;1.80;;
73693;SDS011;61997;53.974;11.670;2023-09-07T01:46:51;3.25;;;1.92;;
73693;SDS011;61997;53.974;11.670;2023-09-07T01:49:17;2.58;;;1.98;;
73693;SDS011;61997;53.974;11.670;2023-09-07T01:51:42;2.85;;;1.98;;
73693;SDS011;61997;53.974;11.670;2023-09-07T01:54:08;2.92;;;2.10;;
73693;SDS011;61997;53.974;11.670;2023-09-07T01:56:34;2.55;;;1.90;;
73693;SDS011;61997;53.974;11.670;2023-09-07T01:59:00;2.65;;;1.92;;
73693;SDS011;61997;53.974;11.670;2023-09-07T02:01:30;2.60;;;1.70;;
73693;SDS011;61997;53.974;11.670;2023-09-07T02:03:56;2.65;;;1.95;;
73693;SDS011;61997;53.974;11.670;2023-09-07T02:06:22;2.35;;;1.83;;
73693;SDS011;61997;53.974;11.670;2023-09-07T02:08:47;2.58;;;1.75;;
73693;SDS011;61997;53.974;11.670;2023-09-07T02:11:13;2.63;;;2.00;;
73693;SDS011;61997;53.974;11.670;2023-09-07T02:13:42;2.50;;;1.83;;
73693;SDS011;61997;53.974;11.670;2023-09-07T02:16:08;2.50;;;1.70;;
73693;SDS011;61997;53.974;11.670;2023-09-07T02:18:33;2.42;;;1.85;;
73693;SDS011;61997;53.974;11.670;2023-09-07T02:21:02;3.42;;;1.95;;
73693;SDS011;61997;53.974;11.670;2023-09-07T02:23:29;2.63;;;1.77;;
73693;SDS011;61997;53.974;11.670;2023-09-07T02:25:55;2.30;;;1.60;;
73693;SDS011;61997;53.974;11.670;2023-09-07T02:28:20;2.20;;;1.85;;
73693;SDS011;61997;53.974;11.670;2023-09-07T02:30:46;3.15;;;1.70;;
73693;SDS011;61997;53.974;11.670;2023-09-07T02:33:11;3.28;;;2.20;;
73693;SDS011;61997;53.974;11.670;2023-09-07T02:35:37;2.58;;;1.88;;
73693;SDS011;61997;53.974;11.670;2023-09-07T02:38:02;3.05;;;1.70;;
73693;SDS011;61997;53.974;11.670;2023-09-07T02:40:28;3.08;;;1.77;;
73693;SDS011;61997;53.974;11.670;2023-09-07T02:42:53;2.97;;;1.70;;
73693;SDS011;61997;53.974;11.670;2023-09-07T02:45:19;2.80;;;1.98;;
73693;SDS011;61997;53.974;11.670;2023-09-07T02:47:44;2.88;;;1.80;;
73693;SDS011;61997;53.974;11.670;2023-09-07T02:50:09;3.33;;;2.05;;
73693;SDS011;61997;53.974;11.670;2023-09-07T02:52:35;2.30;;;1.77;;
73693;SDS011;61997;53.974;11.670;2023-09-07T02:55:00;2.17;;;1.83;;
73693;SDS011;61997;53.974;11.670;2023-09-07T02:57:25;2.65;;;1.73;;
73693;SDS011;61997;53.974;11.670;2023-09-07T02:59:51;2.40;;;1.70;;
73693;SDS011;61997;53.974;11.670;2023-09-07T03:02:17;3.00;;;2.00;;
73693;SDS011;61997;53.974;11.670;2023-09-07T03:04:42;2.53;;;1.58;;
73693;SDS011;61997;53.974;11.670;2023-09-07T03:07:08;2.80;;;2.13;;
73693;SDS011;61997;53.974;11.670;2023-09-07T03:09:34;3.13;;;1.90;;
73693;SDS011;61997;53.974;11.670;2023-09-07T03:11:59;2.10;;;1.60;;
73693;SDS011;61997;53.974;11.670;2023-09-07T03:14:25;2.88;;;1.73;;
73693;SDS011;61997;53.974;11.670;2023-09-07T03:16:50;2.10;;;1.52;;
73693;SDS011;61997;53.974;11.670;2023-09-07T03:19:16;2.25;;;1.75;;
73693;SDS011;61997;53.974;11.670;2023-09-07T03:21:41;2.97;;;1.80;;
73693;SDS011;61997;53.974;11.670;2023-09-07T03:24:07;2.67;;;1.92;;
73693;SDS011;61997;53.974;11.670;2023-09-07T03:26:32;2.38;;;2.05;;
73693;SDS011;61997;53.974;11.670;2023-09-07T03:28:57;2.00;;;1.73;;
73693;SDS011;61997;53.974;11.670;2023-09-07T03:31:23;2.83;;;1.60;;
73693;SDS011;61997;53.974;11.670;2023-09-07T03:33:48;2.92;;;1.90;;
73693;SDS011;61997;53.974;11.670;2023-09-07T03:36:14;2.42;;;1.90;;
73693;SDS011;61997;53.974;11.670;2023-09-07T03:38:40;3.00;;;1.98;;
73693;SDS011;61997;53.974;11.670;2023-09-07T03:41:05;2.75;;;2.05;;
73693;SDS011;61997;53.974;11.670;2023-09-07T03:43:31;2.47;;;1.67;;
73693;SDS011;61997;53.974;11.670;2023-09-07T03:45:57;2.38;;;1.83;;
73693;SDS011;61997;53.974;11.670;2023-09-07T03:48:22;2.65;;;1.83;;
73693;SDS011;61997;53.974;11.670;2023-09-07T03:50:48;3.63;;;2.05;;
73693;SDS011;61997;53.974;11.670;2023-09-07T03:53:13;2.67;;;1.83;;
73693;SDS011;61997;53.974;11.670;2023-09-07T03:55:42;2.70;;;1.83;;
73693;SDS011;61997;53.974;11.670;2023-09-07T03:58:11;2.17;;;1.73;;
73693;SDS011;61997;53.974;11.670;2023-09-07T04:00:40;2.65;;;2.28;;
73693;SDS011;61997;53.974;11.670;2023-09-07T04:03:06;3.13;;;1.77;;
73693;SDS011;61997;53.974;11.670;2023-09-07T04:05:32;2.63;;;1.92;;
73693;SDS011;61997;53.974;11.670;2023-09-07T04:07:57;2.72;;;1.95;;
73693;SDS011;61997;53.974;11.670;2023-09-07T04:10:23;3.45;;;2.22;;
73693;SDS011;61997;53.974;11.670;2023-09-07T04:12:48;2.95;;;1.88;;
73693;SDS011;61997;53.974;11.670;2023-09-07T04:15:14;2.53;;;1.92;;
73693;SDS011;61997;53.974;11.670;2023-09-07T04:17:39;2.60;;;1.77;;
73693;SDS011;61997;53.974;11.670;2023-09-07T04:20:07;3.30;;;1.95;;
73693;SDS011;61997;53.974;11.670;2023-09-07T04:22:34;2.45;;;1.92;;
73693;SDS011;61997;53.974;11.670;2023-09-07T04:24:59;2.70;;;1.95;;
73693;SDS011;61997;53.974;11.670;2023-09-07T04:27:24;3.58;;;2.17;;
73693;SDS011;61997;53.974;11.670;2023-09-07T04:29:51;2.60;;;2.00;;
73693;SDS011;61997;53.974;11.670;2023-09-07T04:32:16;3.15;;;2.03;;
73693;SDS011;61997;53.974;11.670;2023-09-07T04:34:41;2.30;;;1.75;;
73693;SDS011;61997;53.974;11.670;2023-09-07T04:37:07;3.35;;;1.80;;
73693;SDS011;61997;53.974;11.670;2023-09-07T04:39:32;2.75;;;2.05;;
73693;SDS011;61997;53.974;11.670;2023-09-07T04:41:58;3.15;;;2.10;;
73693;SDS011;61997;53.974;11.670;2023-09-07T04:44:23;2.72;;;1.90;;
73693;SDS011;61997;53.974;11.670;2023-09-07T04:46:48;2.33;;;1.88;;
73693;SDS011;61997;53.974;11.670;2023-09-07T04:49:15;2.15;;;1.73;;
73693;SDS011;61997;53.974;11.670;2023-09-07T04:51:40;2.58;;;1.80;;
73693;SDS011;61997;53.974;11.670;2023-09-07T04:54:06;2.55;;;1.83;;
73693;SDS011;61997;53.974;11.670;2023-09-07T04:56:31;3.20;;;2.13;;
73693;SDS011;61997;53.974;11.670;2023-09-07T04:58:56;2.67;;;1.85;;
73693;SDS011;61997;53.974;11.670;2023-09-07T05:01:22;2.70;;;1.95;;
73693;SDS011;61997;53.974;11.670;2023-09-07T05:03:47;2.60;;;2.00;;
73693;SDS011;61997;53.974;11.670;2023-09-07T05:06:12;2.60;;;2.00;;
73693;SDS011;61997;53.974;11.670;2023-09-07T05:08:38;3.03;;;2.10;;
73693;SDS011;61997;53.974;11.670;2023-09-07T05:11:04;2.40;;;1.88;;
73693;SDS011;61997;53.974;11.670;2023-09-07T05:13:30;2.33;;;1.90;;
73693;SDS011;61997;53.974;11.670;2023-09-07T05:15:56;2.35;;;1.73;;
73693;SDS011;61997;53.974;11.670;2023-09-07T05:18:24;2.28;;;1.95;;
73693;SDS011;61997;53.974;11.670;2023-09-07T05:20:49;2.60;;;1.85;;
73693;SDS011;61997;53.974;11.670;2023-09-07T05:23:16;3.28;;;2.17;;
73693;SDS011;61997;53.974;11.670;2023-09-07T05:25:45;2.50;;;2.28;;
73693;SDS011;61997;53.974;11.670;2023-09-07T05:28:12;2.92;;;2.00;;
73693;SDS011;61997;53.974;11.670;2023-09-07T05:30:38;2.67;;;2.10;;
73693;SDS011;61997;53.974;11.670;2023-09-07T05:33:04;2.65;;;1.95;;
73693;SDS011;61997;53.974;11.670;2023-09-07T05:35:29;3.17;;;2.38;;
73693;SDS011;61997;53.974;11.670;2023-09-07T05:37:57;3.03;;;2.08;;
73693;SDS011;61997;53.974;11.670;2023-09-07T05:40:23;3.10;;;2.20;;
73693;SDS011;61997;53.974;11.670;2023-09-07T05:42:48;3.03;;;2.30;;
73693;SDS011;61997;53.974;11.670;2023-09-07T05:45:13;3.30;;;2.40;;
73693;SDS011;61997;53.974;11.670;2023-09-07T05:47:39;2.88;;;1.98;;
73693;SDS011;61997;53.974;11.670;2023-09-07T05:50:04;3.45;;;2.40;;
73693;SDS011;61997;53.974;11.670;2023-09-07T05:52:30;3.55;;;2.65;;
73693;SDS011;61997;53.974;11.670;2023-09-07T05:54:55;3.05;;;2.05;;
73693;SDS011;61997;53.974;11.670;2023-09-07T05:57:20;2.83;;;2.17;;
73693;SDS011;61997;53.974;11.670;2023-09-07T05:59:46;2.83;;;2.10;;
73693;SDS011;61997;53.974;11.670;2023-09-07T06:02:11;5.13;;;3.00;;
73693;SDS011;61997;53.974;11.670;2023-09-07T06:04:37;3.53;;;2.60;;
73693;SDS011;61997;53.974;11.670;2023-09-07T06:07:02;5.10;;;2.60;;
73693;SDS011;61997;53.974;11.670;2023-09-07T06:09:27;2.85;;;2.20;;
73693;SDS011;61997;53.974;11.670;2023-09-07T06:11:54;3.58;;;2.70;;
73693;SDS011;61997;53.974;11.670;2023-09-07T06:14:19;3.63;;;2.28;;
73693;SDS011;61997;53.974;11.670;2023-09-07T06:16:45;2.83;;;2.13;;
73693;SDS011;61997;53.974;11.670;2023-09-07T06:19:10;3.67;;;2.35;;
73693;SDS011;61997;53.974;11.670;2023-09-07T06:21:35;3.60;;;2.63;;
73693;SDS011;61997;53.974;11.670;2023-09-07T06:24:01;2.78;;;2.17;;
73693;SDS011;61997;53.974;11.670;2023-09-07T06:26:26;3.45;;;2.50;;
73693;SDS011;61997;53.974;11.670;2023-09-07T06:28:51;3.72;;;2.63;;
73693;SDS011;61997;53.974;11.670;2023-09-07T06:31:17;3.55;;;2.53;;
73693;SDS011;61997;53.974;11.670;2023-09-07T06:33:42;3.17;;;2.40;;
73693;SDS011;61997;53.974;11.670;2023-09-07T06:36:07;2.80;;;2.20;;
73693;SDS011;61997;53.974;11.670;2023-09-07T06:38:33;3.15;;;2.30;;
73693;SDS011;61997;53.974;11.670;2023-09-07T06:40:58;2.97;;;2.03;;
73693;SDS011;61997;53.974;11.670;2023-09-07T06:43:23;3.60;;;2.25;;
73693;SDS011;61997;53.974;11.670;2023-09-07T06:45:49;2.42;;;1.95;;
73693;SDS011;61997;53.974;11.670;2023-09-07T06:48:14;3.03;;;2.20;;
73693;SDS011;61997;53.974;11.670;2023-09-07T06:50:39;2.92;;;2.05;;
73693;SDS011;61997;53.974;11.670;2023-09-07T06:53:05;3.78;;;2.20;;
73693;SDS011;61997;53.974;11.670;2023-09-07T06:55:30;2.92;;;2.13;;
73693;SDS011;61997;53.974;11.670;2023-09-07T06:57:55;2.50;;;1.90;;
73693;SDS011;61997;53.974;11.670;2023-09-07T07:00:22;2.55;;;2.03;;
73693;SDS011;61997;53.974;11.670;2023-09-07T07:02:47;3.00;;;2.10;;
73693;SDS011;61997;53.974;11.670;2023-09-07T07:05:13;2.90;;;1.80;;
73693;SDS011;61997;53.974;11.670;2023-09-07T07:07:38;3.17;;;2.20;;
73693;SDS011;61997;53.974;11.670;2023-09-07T07:10:04;2.85;;;2.30;;
73693;SDS011;61997;53.974;11.670;2023-09-07T07:12:31;2.95;;;2.00;;
73693;SDS011;61997;53.974;11.670;2023-09-07T07:14:59;2.70;;;1.92;;
73693;SDS011;61997;53.974;11.670;2023-09-07T07:17:25;2.60;;;1.83;;
73693;SDS011;61997;53.974;11.670;2023-09-07T07:19:50;3.22;;;1.95;;
73693;SDS011;61997;53.974;11.670;2023-09-07T07:22:16;2.92;;;2.10;;
73693;SDS011;61997;53.974;11.670;2023-09-07T07:24:41;3.17;;;2.50;;
73693;SDS011;61997;53.974;11.670;2023-09-07T07:27:07;3.05;;;2.20;;
73693;SDS011;61997;53.974;11.670;2023-09-07T07:29:32;2.85;;;2.38;;
73693;SDS011;61997;53.974;11.670;2023-09-07T07:31:58;3.63;;;2.40;;
73693;SDS011;61997;53.974;11.670;2023-09-07T07:34:23;2.70;;;2.08;;
73693;SDS011;61997;53.974;11.670;2023-09-07T07:36:48;2.92;;;2.08;;
73693;SDS011;61997;53.974;11.670;2023-09-07T07:39:14;3.33;;;2.30;;
73693;SDS011;61997;53.974;11.670;2023-09-07T07:41:40;3.38;;;2.40;;
73693;SDS011;61997;53.974;11.670;2023-09-07T07:44:06;2.75;;;2.22;;
73693;SDS011;61997;53.974;11.670;2023-09-07T07:46:31;3.28;;;2.58;;
73693;SDS011;61997;53.974;11.670;2023-09-07T07:48:57;2.80;;;2.40;;
73693;SDS011;61997;53.974;11.670;2023-09-07T07:51:22;3.83;;;2.58;;
73693;SDS011;61997;53.974;11.670;2023-09-07T07:53:47;3.28;;;2.67;;
73693;SDS011;61997;53.974;11.670;2023-09-07T07:56:18;3.08;;;2.25;;
73693;SDS011;61997;53.974;11.670;2023-09-07T07:58:44;4.03;;;2.58;;
73693;SDS011;61997;53.974;11.670;2023-09-07T08:01:14;3.50;;;2.28;;
73693;SDS011;61997;53.974;11.670;2023-09-07T08:03:42;3.55;;;2.20;;
73693;SDS011;61997;53.974;11.670;2023-09-07T08:06:08;3.30;;;2.58;;
73693;SDS011;61997;53.974;11.670;2023-09-07T08:08:34;3.13;;;2.10;;
73693;SDS011;61997;53.974;11.670;2023-09-07T08:10:59;2.63;;;2.15;;
73693;SDS011;61997;53.974;11.670;2023-09-07T08:13:29;3.55;;;2.75;;
73693;SDS011;61997;53.974;11.670;2023-09-07T08:15:55;3.40;;;2.38;;
73693;SDS011;61997;53.974;11.670;2023-09-07T08:18:20;2.70;;;2.15;;
73693;SDS011;61997;53.974;11.670;2023-09-07T08:20:45;3.50;;;2.55;;
73693;SDS011;61997;53.974;11.670;2023-09-07T08:23:11;3.20;;;2.75;;
73693;SDS011;61997;53.974;11.670;2023-09-07T08:25:36;3.63;;;2.92;;
73693;SDS011;61997;53.974;11.670;2023-09-07T08:28:04;3.03;;;2.47;;
73693;SDS011;61997;53.974;11.670;2023-09-07T08:30:30;2.90;;;2.50;;
73693;SDS011;61997;53.974;11.670;2023-09-07T08:32:56;2.88;;;2.20;;
73693;SDS011;61997;53.974;11.670;2023-09-07T08:35:21;3.70;;;2.58;;
73693;SDS011;61997;53.974;11.670;2023-09-07T08:37:52;3.58;;;2.60;;
73693;SDS011;61997;53.974;11.670;2023-09-07T08:40:17;3.55;;;2.50;;
73693;SDS011;61997;53.974;11.670;2023-09-07T08:42:43;3.50;;;2.60;;
73693;SDS011;61997;53.974;11.670;2023-09-07T08:45:09;4.07;;;3.13;;
73693;SDS011;61997;53.974;11.670;2023-09-07T08:47:38;3.40;;;2.45;;
73693;SDS011;61997;53.974;11.670;2023-09-07T08:50:04;3.97;;;2.42;;
73693;SDS011;61997;53.974;11.670;2023-09-07T08:52:34;4.55;;;2.60;;
73693;SDS011;61997;53.974;11.670;2023-09-07T08:54:59;3.25;;;2.70;;
73693;SDS011;61997;53.974;11.670;2023-09-07T08:57:28;3.70;;;2.80;;
73693;SDS011;61997;53.974;11.670;2023-09-07T08:59:54;4.85;;;3.13;;
73693;SDS011;61997;53.974;11.670;2023-09-07T09:02:20;3.78;;;2.88;;
73693;SDS011;61997;53.974;11.670;2023-09-07T09:04:45;4.28;;;2.85;;
73693;SDS011;61997;53.974;11.670;2023-09-07T09:07:11;3.70;;;2.75;;
73693;SDS011;61997;53.974;11.670;2023-09-07T09:09:37;4.32;;;3.10;;
73693;SDS011;61997;53.974;11.670;2023-09-07T09:12:09;4.85;;;3.50;;
73693;SDS011;61997;53.974;11.670;2023-09-07T09:14:35;4.22;;;2.80;;
73693;SDS011;61997;53.974;11.670;2023-09-07T09:17:01;3.78;;;2.92;;
73693;SDS011;61997;53.974;11.670;2023-09-07T09:19:33;3.95;;;2.80;;
73693;SDS011;61997;53.974;11.670;2023-09-07T09:21:59;3.85;;;2.78;;
73693;SDS011;61997;53.974;11.670;2023-09-07T09:24:25;3.80;;;2.95;;
73693;SDS011;61997;53.974;11.670;2023-09-07T09:26:50;4.15;;;3.08;;
73693;SDS011;61997;53.974;11.670;2023-09-07T09:29:16;4.05;;;3.38;;
73693;SDS011;61997;53.974;11.670;2023-09-07T09:31:41;3.80;;;2.80;;
73693;SDS011;61997;53.974;11.670;2023-09-07T09:34:07;3.58;;;2.90;;
73693;SDS011;61997;53.974;11.670;2023-09-07T09:36:34;4.05;;;3.03;;
73693;SDS011;61997;53.974;11.670;2023-09-07T09:39:01;4.10;;;3.00;;
73693;SDS011;61997;53.974;11.670;2023-09-07T09:41:28;3.90;;;2.90;;
73693;SDS011;61997;53.974;11.670;2023-09-07T09:43:56;3.88;;;2.88;;
73693;SDS011;61997;53.974;11.670;2023-09-07T09:46:21;4.70;;;3.25;;
73693;SDS011;61997;53.974;11.670;2023-09-07T09:48:47;3.47;;;2.70;;
73693;SDS011;61997;53.974;11.670;2023-09-07T09:51:13;3.95;;;2.80;;
73693;SDS011;61997;53.974;11.670;2023-09-07T09:53:39;4.65;;;3.00;;
73693;SDS011;61997;53.974;11.670;2023-09-07T09:56:07;4.25;;;3.10;;
73693;SDS011;61997;53.974;11.670;2023-09-07T09:58:32;4.25;;;3.20;;
73693;SDS011;61997;53.974;11.670;2023-09-07T10:00:58;3.38;;;2.63;;
73693;SDS011;61997;53.974;11.670;2023-09-07T10:03:32;4.60;;;3.28;;
73693;SDS011;61997;53.974;11.670;2023-09-07T10:06:11;4.55;;;3.08;;
73693;SDS011;61997;53.974;11.670;2023-09-07T10:08:39;4.28;;;3.05;;
73693;SDS011;61997;53.974;11.670;2023-09-07T10:11:07;4.32;;;3.30;;
73693;SDS011;61997;53.974;11.670;2023-09-07T10:13:36;4.93;;;3.25;;
73693;SDS011;61997;53.974;11.670;2023-09-07T10:16:02;4.38;;;3.05;;
73693;SDS011;61997;53.974;11.670;2023-09-07T10:18:35;3.95;;;3.08;;
73693;SDS011;61997;53.974;11.670;2023-09-07T10:21:01;5.15;;;3.60;;
73693;SDS011;61997;53.974;11.670;2023-09-07T10:24:01;3.53;;;2.95;;
73693;SDS011;61997;53.974;11.670;2023-09-07T10:26:20;4.47;;;3.35;;
73693;SDS011;61997;53.974;11.670;2023-09-07T10:28:46;4.78;;;3.20;;
73693;SDS011;61997;53.974;11.670;2023-09-07T10:31:17;4.88;;;3.30;;
73693;SDS011;61997;53.974;11.670;2023-09-07T10:33:43;4.45;;;3.35;;
73693;SDS011;61997;53.974;11.670;2023-09-07T10:36:19;4.03;;;3.45;;
73693;SDS011;61997;53.974;11.670;2023-09-07T10:38:46;3.70;;;3.15;;
73693;SDS011;61997;53.974;11.670;2023-09-07T10:41:11;4.03;;;3.50;;
73693;SDS011;61997;53.974;11.670;2023-09-07T10:43:38;4.38;;;3.42;;
73693;SDS011;61997;53.974;11.670;2023-09-07T10:46:11;4.20;;;3.13;;
73693;SDS011;61997;53.974;11.670;2023-09-07T10:48:37;4.47;;;3.33;;
73693;SDS011;61997;53.974;11.670;2023-09-07T10:51:02;4.15;;;3.33;;
73693;SDS011;61997;53.974;11.670;2023-09-07T10:53:31;5.38;;;3.42;;
73693;SDS011;61997;53.974;11.670;2023-09-07T10:55:58;4.90;;;3.40;;
73693;SDS011;61997;53.974;11.670;2023-09-07T10:58:29;4.95;;;3.45;;
73693;SDS011;61997;53.974;11.670;2023-09-07T11:00:59;5.95;;;3.80;;
73693;SDS011;61997;53.974;11.670;2023-09-07T11:03:25;5.00;;;3.53;;
73693;SDS011;61997;53.974;11.670;2023-09-07T11:05:52;4.63;;;3.58;;
73693;SDS011;61997;53.974;11.670;2023-09-07T11:08:20;5.00;;;3.50;;
73693;SDS011;61997;53.974;11.670;2023-09-07T11:10:46;5.18;;;3.70;;
73693;SDS011;61997;53.974;11.670;2023-09-07T11:13:12;4.88;;;3.33;;
73693;SDS011;61997;53.974;11.670;2023-09-07T11:15:37;4.80;;;3.70;;
73693;SDS011;61997;53.974;11.670;2023-09-07T11:18:04;4.68;;;3.50;;
73693;SDS011;61997;53.974;11.670;2023-09-07T11:20:31;5.18;;;3.55;;
73693;SDS011;61997;53.974;11.670;2023-09-07T11:22:57;5.70;;;3.88;;
73693;SDS011;61997;53.974;11.670;2023-09-07T11:25:24;4.88;;;3.72;;
73693;SDS011;61997;53.974;11.670;2023-09-07T11:27:51;4.60;;;3.38;;
73693;SDS011;61997;53.974;11.670;2023-09-07T11:30:19;5.68;;;4.13;;
73693;SDS011;61997;53.974;11.670;2023-09-07T11:32:45;4.72;;;3.33;;
73693;SDS011;61997;53.974;11.670;2023-09-07T11:35:11;5.35;;;3.67;;
73693;SDS011;61997;53.974;11.670;2023-09-07T11:37:36;5.50;;;4.10;;
73693;SDS011;61997;53.974;11.670;2023-09-07T11:40:02;5.40;;;3.63;;
73693;SDS011;61997;53.974;11.670;2023-09-07T11:42:36;5.45;;;3.72;;
73693;SDS011;61997;53.974;11.670;2023-09-07T11:45:01;4.53;;;3.53;;
73693;SDS011;61997;53.974;11.670;2023-09-07T11:47:27;5.55;;;4.03;;
73693;SDS011;61997;53.974;11.670;2023-09-07T11:49:52;9.07;;;5.13;;
73693;SDS011;61997;53.974;11.670;2023-09-07T11:52:18;7.15;;;4.78;;
73693;SDS011;61997;53.974;11.670;2023-09-07T11:54:43;8.27;;;4.60;;
73693;SDS011;61997;53.974;11.670;2023-09-07T11:57:09;6.65;;;4.68;;
73693;SDS011;61997;53.974;11.670;2023-09-07T11:59:34;6.80;;;4.72;;
73693;SDS011;61997;53.974;11.670;2023-09-07T12:02:00;6.30;;;4.03;;
73693;SDS011;61997;53.974;11.670;2023-09-07T12:04:25;6.57;;;4.28;;
73693;SDS011;61997;53.974;11.670;2023-09-07T12:06:51;6.95;;;4.63;;
73693;SDS011;61997;53.974;11.670;2023-09-07T12:09:16;8.00;;;4.85;;
73693;SDS011;61997;53.974;11.670;2023-09-07T12:11:42;7.82;;;4.60;;
73693;SDS011;61997;53.974;11.670;2023-09-07T12:14:08;6.53;;;4.50;;
73693;SDS011;61997;53.974;11.670;2023-09-07T12:16:34;7.35;;;4.60;;
73693;SDS011;61997;53.974;11.670;2023-09-07T12:18:59;5.35;;;4.00;;
73693;SDS011;61997;53.974;11.670;2023-09-07T12:21:25;6.30;;;4.43;;
73693;SDS011;61997;53.974;11.670;2023-09-07T12:23:50;6.70;;;4.25;;
73693;SDS011;61997;53.974;11.670;2023-09-07T12:26:16;6.80;;;4.63;;
73693;SDS011;61997;53.974;11.670;2023-09-07T12:28:46;7.93;;;4.40;;
73693;SDS011;61997;53.974;11.670;2023-09-07T12:31:11;5.43;;;4.22;;
73693;SDS011;61997;53.974;11.670;2023-09-07T12:33:37;6.38;;;4.53;;
73693;SDS011;61997;53.974;11.670;2023-09-07T12:36:03;8.00;;;4.43;;
73693;SDS011;61997;53.974;11.670;2023-09-07T12:38:29;6.82;;;4.47;;
73693;SDS011;61997;53.974;11.670;2023-09-07T12:40:54;7.40;;;4.63;;
73693;SDS011;61997;53.974;11.670;2023-09-07T12:43:20;6.60;;;4.72;;
73693;SDS011;61997;53.974;11.670;2023-09-07T12:45:46;5.75;;;4.20;;
73693;SDS011;61997;53.974;11.670;2023-09-07T12:48:11;6.18;;;4.63;;
73693;SDS011;61997;53.974;11.670;2023-09-07T12:50:37;8.10;;;4.88;;
73693;SDS011;61997;53.974;11.670;2023-09-07T12:53:02;6.70;;;4.25;;
73693;SDS011;61997;53.974;11.670;2023-09-07T12:55:28;6.60;;;4.03;;
73693;SDS011;61997;53.974;11.670;2023-09-07T12:57:54;5.88;;;4.38;;
73693;SDS011;61997;53.974;11.670;2023-09-07T13:00:20;7.60;;;4.93;;
73693;SDS011;61997;53.974;11.670;2023-09-07T13:02:45;6.93;;;4.45;;
73693;SDS011;61997;53.974;11.670;2023-09-07T13:05:11;6.72;;;5.10;;
73693;SDS011;61997;53.974;11.670;2023-09-07T13:07:36;6.53;;;4.35;;
73693;SDS011;61997;53.974;11.670;2023-09-07T13:10:02;6.25;;;4.32;;
73693;SDS011;61997;53.974;11.670;2023-09-07T13:12:29;7.18;;;4.55;;
73693;SDS011;61997;53.974;11.670;2023-09-07T13:14:55;7.07;;;4.85;;
73693;SDS011;61997;53.974;11.670;2023-09-07T13:17:21;6.88;;;4.40;;
73693;SDS011;61997;53.974;11.670;2023-09-07T13:19:46;6.78;;;4.72;;
73693;SDS011;61997;53.974;11.670;2023-09-07T13:22:13;5.72;;;3.83;;
73693;SDS011;61997;53.974;11.670;2023-09-07T13:24:38;7.10;;;4.80;;
73693;SDS011;61997;53.974;11.670;2023-09-07T13:27:04;7.18;;;4.82;;
73693;SDS011;61997;53.974;11.670;2023-09-07T13:29:29;6.65;;;4.38;;
73693;SDS011;61997;53.974;11.670;2023-09-07T13:31:56;6.85;;;4.35;;
73693;SDS011;61997;53.974;11.670;2023-09-07T13:34:23;6.82;;;4.25;;
73693;SDS011;61997;53.974;11.670;2023-09-07T13:36:49;6.20;;;4.47;;
73693;SDS011;61997;53.974;11.670;2023-09-07T13:39:14;7.07;;;4.72;;
73693;SDS011;61997;53.974;11.670;2023-09-07T13:41:39;5.90;;;4.38;;
73693;SDS011;61997;53.974;11.670;2023-09-07T13:44:05;5.78;;;4.40;;
73693;SDS011;61997;53.974;11.670;2023-09-07T13:46:30;6.65;;;4.13;;
73693;SDS011;61997;53.974;11.670;2023-09-07T13:48:56;7.45;;;4.60;;
73693;SDS011;61997;53.974;11.670;2023-09-07T13:51:22;7.57;;;4.95;;
73693;SDS011;61997;53.974;11.670;2023-09-07T13:53:47;6.38;;;4.32;;
73693;SDS011;61997;53.974;11.670;2023-09-07T13:56:12;7.00;;;4.47;;
73693;SDS011;61997;53.974;11.670;2023-09-07T13:58:38;6.40;;;4.20;;
73693;SDS011;61997;53.974;11.670;2023-09-07T14:01:03;6.45;;;4.15;;
73693;SDS011;61997;53.974;11.670;2023-09-07T14:03:28;8.48;;;4.20;;
73693;SDS011;61997;53.974;11.670;2023-09-07T14:05:54;6.22;;;4.00;;
73693;SDS011;61997;53.974;11.670;2023-09-07T14:08:20;8.20;;;4.90;;
73693;SDS011;61997;53.974;11.670;2023-09-07T14:10:48;6.53;;;4.40;;
73693;SDS011;61997;53.974;11.670;2023-09-07T14:13:14;6.07;;;4.53;;
73693;SDS011;61997;53.974;11.670;2023-09-07T14:15:40;6.70;;;4.40;;
73693;SDS011;61997;53.974;11.670;2023-09-07T14:18:05;6.28;;;4.78;;
73693;SDS011;61997;53.974;11.670;2023-09-07T14:20:30;6.95;;;4.45;;
73693;SDS011;61997;53.974;11.670;2023-09-07T14:22:56;6.72;;;4.45;;
73693;SDS011;61997;53.974;11.670;2023-09-07T14:25:23;7.05;;;4.63;;
73693;SDS011;61997;53.974;11.670;2023-09-07T14:27:49;6.68;;;4.35;;
73693;SDS011;61997;53.974;11.670;2023-09-07T14:30:14;6.93;;;4.32;;